Time;durP1;ratioP1;P1;durP2;ratioP2;P2;SDS_P1;SDS_P2;PMS_P1;PMS_P2;Temp;Humidity;BMP_temperature;BMP_pressure;BME280_temperature;BME280_humidity;BME280_pressure;Samples;Min_cycle;Max_cycle;Signal;HPM_P1;HPM_P2
2023/08/30 04:02:34;;;;;;;3.10;2.97;;;12.70;99.90;;;;;;6143215;23;20513;-70
2023/08/30 04:05:01;;;;;;;2.87;2.67;;;12.70;99.90;;;;;;6151442;23;20971;-70
2023/08/30 04:07:27;;;;;;;3.17;2.83;;;12.70;99.90;;;;;;6152984;23;20505;-70
2023/08/30 04:09:54;;;;;;;2.30;2.20;;;12.70;99.90;;;;;;6153359;23;20189;-70
2023/08/30 04:12:20;;;;;;;2.20;2.10;;;12.70;99.90;;;;;;6154028;23;20445;-70
2023/08/30 04:14:47;;;;;;;3.60;3.40;;;12.70;99.90;;;;;;6152587;23;20687;-70
2023/08/30 04:17:15;;;;;;;3.50;3.35;;;12.70;99.90;;;;;;6153235;23;20549;-73
2023/08/30 04:19:43;;;;;;;3.50;3.30;;;12.70;99.90;;;;;;6148182;23;20194;-74
2023/08/30 04:22:10;;;;;;;2.60;2.50;;;12.70;99.90;;;;;;6153255;23;20426;-73
2023/08/30 04:24:36;;;;;;;3.30;3.10;;;12.70;99.90;;;;;;6153392;23;20711;-73
2023/08/30 04:27:03;;;;;;;3.25;3.05;;;12.70;99.90;;;;;;6153887;23;20442;-73
2023/08/30 04:29:30;;;;;;;3.47;3.27;;;12.70;99.90;;;;;;6152054;23;20190;-73
2023/08/30 04:31:57;;;;;;;3.63;3.33;;;12.70;99.90;;;;;;6152821;23;20439;-73
2023/08/30 04:34:24;;;;;;;3.60;3.40;;;12.70;99.90;;;;;;6152530;23;20742;-74
2023/08/30 04:36:52;;;;;;;3.27;3.07;;;12.70;99.90;;;;;;6152538;23;20967;-73
2023/08/30 04:39:19;;;;;;;3.70;3.40;;;12.70;99.90;;;;;;6152800;23;20747;-73
2023/08/30 04:41:45;;;;;;;2.70;2.60;;;12.70;99.90;;;;;;6161051;23;20496;-74
2023/08/30 04:44:12;;;;;;;3.00;2.80;;;12.70;99.90;;;;;;6154760;23;20182;-74
2023/08/30 04:46:39;;;;;;;3.57;3.40;;;12.70;99.90;;;;;;6154044;23;20446;-74
2023/08/30 04:49:06;;;;;;;2.90;2.80;;;12.70;99.90;;;;;;6154304;23;20429;-74
2023/08/30 04:51:32;;;;;;;3.43;3.13;;;12.70;99.90;;;;;;6153434;23;20183;-73
2023/08/30 04:54:00;;;;;;;3.03;2.83;;;12.70;99.90;;;;;;6152484;23;20442;-73
2023/08/30 04:56:27;;;;;;;4.30;3.90;;;12.70;99.90;;;;;;6150621;23;20418;-73
2023/08/30 04:58:54;;;;;;;3.43;3.23;;;12.70;99.90;;;;;;6151760;23;20183;-73
2023/08/30 05:01:21;;;;;;;3.20;2.90;;;12.70;99.90;;;;;;6152390;23;20423;-74
2023/08/30 05:03:47;;;;;;;2.70;2.60;;;12.80;99.90;;;;;;6151609;23;20725;-74
2023/08/30 05:06:16;;;;;;;3.00;2.90;;;12.80;99.90;;;;;;6152674;23;20426;-73
2023/08/30 05:08:42;;;;;;;3.53;3.40;;;12.80;99.90;;;;;;6152389;23;20429;-74
2023/08/30 05:11:10;;;;;;;3.63;3.43;;;12.80;99.90;;;;;;6152085;23;20620;-74
2023/08/30 05:13:37;;;;;;;3.07;2.97;;;12.70;99.90;;;;;;6153142;23;20450;-74
2023/08/30 05:16:04;;;;;;;2.80;2.70;;;12.80;99.90;;;;;;6153306;23;20890;-73
2023/08/30 05:18:31;;;;;;;2.97;2.83;;;12.90;99.90;;;;;;6152185;23;20457;-72
2023/08/30 05:20:57;;;;;;;3.57;3.37;;;13.00;99.90;;;;;;6152095;23;20423;-71
2023/08/30 05:23:24;;;;;;;3.70;3.50;;;13.00;99.90;;;;;;6162731;23;20426;-72
2023/08/30 05:25:51;;;;;;;3.00;2.90;;;13.10;99.90;;;;;;6153262;23;20898;-72
2023/08/30 05:28:19;;;;;;;2.97;2.80;;;13.10;99.90;;;;;;6151931;23;20460;-72
2023/08/30 05:30:46;;;;;;;3.80;3.30;;;13.20;99.90;;;;;;6152893;23;20422;-72
2023/08/30 05:33:12;;;;;;;4.13;3.83;;;13.20;99.90;;;;;;6151741;23;20418;-72
2023/08/30 05:35:39;;;;;;;3.50;3.30;;;13.30;99.90;;;;;;6151137;23;20419;-71
2023/08/30 05:38:06;;;;;;;3.70;3.50;;;13.40;99.90;;;;;;6151665;23;20454;-71
2023/08/30 05:40:32;;;;;;;4.10;3.80;;;13.40;99.90;;;;;;6151483;23;20418;-71
2023/08/30 05:42:59;;;;;;;3.67;3.50;;;13.50;99.90;;;;;;6161353;23;20423;-71
2023/08/30 05:45:27;;;;;;;3.67;3.20;;;13.60;99.90;;;;;;6152464;23;20437;-69
2023/08/30 05:47:54;;;;;;;3.67;3.33;;;13.70;99.90;;;;;;6152913;23;20445;-71
2023/08/30 05:50:21;;;;;;;3.50;3.23;;;13.80;99.90;;;;;;6151329;23;20419;-73
2023/08/30 05:52:47;;;;;;;3.10;2.90;;;13.80;99.90;;;;;;6151967;23;20907;-72
2023/08/30 05:55:14;;;;;;;4.47;4.00;;;13.90;99.90;;;;;;6152161;23;20442;-72
2023/08/30 05:57:41;;;;;;;4.17;3.77;;;14.00;99.90;;;;;;6152171;23;20947;-72
2023/08/30 06:00:09;;;;;;;4.40;3.90;;;14.00;99.90;;;;;;6151507;23;20430;-71
2023/08/30 06:02:37;;;;;;;4.70;4.27;;;14.00;99.90;;;;;;6149995;23;20423;-71
2023/08/30 06:05:04;;;;;;;4.40;4.10;;;14.10;99.90;;;;;;6150901;23;20419;-71
2023/08/30 06:07:31;;;;;;;3.87;3.60;;;14.10;99.90;;;;;;6150584;23;20454;-71
2023/08/30 06:09:58;;;;;;;3.60;3.40;;;14.20;99.90;;;;;;6152216;23;20727;-71
2023/08/30 06:12:25;;;;;;;3.77;3.50;;;14.30;99.90;;;;;;6153006;23;20426;-70
2023/08/30 06:14:52;;;;;;;4.53;4.23;;;14.30;99.90;;;;;;6151008;23;20449;-71
2023/08/30 06:17:20;;;;;;;3.97;3.67;;;14.40;99.90;;;;;;6152099;23;20728;-71
2023/08/30 06:19:48;;;;;;;4.17;3.80;;;14.50;99.90;;;;;;6152103;23;20426;-71
2023/08/30 06:22:15;;;;;;;4.23;3.93;;;14.60;99.90;;;;;;6153215;23;20419;-70
2023/08/30 06:24:42;;;;;;;3.97;3.77;;;14.70;99.90;;;;;;6152246;23;20518;-70
2023/08/30 06:27:09;;;;;;;4.13;3.73;;;14.80;99.90;;;;;;6152756;23;20447;-69
2023/08/30 06:29:36;;;;;;;4.43;4.00;;;14.90;99.90;;;;;;6152836;23;20419;-70
2023/08/30 06:32:03;;;;;;;3.50;3.30;;;14.90;99.90;;;;;;6153104;23;20445;-70
2023/08/30 06:34:30;;;;;;;4.17;3.90;;;14.90;99.90;;;;;;6152067;23;20764;-69
2023/08/30 06:36:58;;;;;;;4.00;3.70;;;15.00;99.90;;;;;;6150318;23;20445;-70
2023/08/30 06:39:25;;;;;;;3.70;3.50;;;15.00;99.90;;;;;;6152122;23;20745;-70
2023/08/30 06:41:51;;;;;;;3.93;3.63;;;15.00;99.90;;;;;;6152858;23;20426;-70
2023/08/30 06:44:18;;;;;;;4.23;3.80;;;15.10;99.90;;;;;;6153187;23;20421;-70
2023/08/30 06:46:45;;;;;;;3.47;3.27;;;15.20;99.90;;;;;;6152647;23;20766;-70
2023/08/30 06:49:11;;;;;;;4.10;3.63;;;15.30;99.90;;;;;;6152522;23;20430;-70
2023/08/30 06:51:38;;;;;;;3.90;3.60;;;15.30;99.90;;;;;;6152752;23;20879;-70
2023/08/30 06:54:06;;;;;;;3.90;3.60;;;15.40;99.90;;;;;;6153128;23;20450;-71
2023/08/30 06:56:33;;;;;;;4.33;3.20;;;15.50;99.90;;;;;;6152663;23;20501;-71
2023/08/30 06:59:00;;;;;;;4.43;4.03;;;15.60;99.90;;;;;;6152450;23;20418;-70
2023/08/30 07:01:26;;;;;;;3.37;3.27;;;15.70;99.90;;;;;;6152922;23;20430;-70
2023/08/30 07:03:53;;;;;;;3.80;3.60;;;15.80;99.90;;;;;;6153136;23;20935;-71
2023/08/30 07:06:20;;;;;;;3.33;3.07;;;15.90;99.90;;;;;;6152545;23;20426;-71
2023/08/30 07:08:46;;;;;;;3.23;3.10;;;16.00;99.90;;;;;;6148882;23;20433;-70
2023/08/30 07:11:14;;;;;;;3.10;3.00;;;16.10;99.90;;;;;;6152661;23;20420;-71
2023/08/30 07:13:41;;;;;;;3.17;3.07;;;16.20;99.90;;;;;;6152900;23;20727;-71
2023/08/30 07:16:08;;;;;;;3.60;3.40;;;16.30;99.90;;;;;;6152333;23;20415;-71
2023/08/30 07:18:35;;;;;;;3.90;3.70;;;16.40;99.90;;;;;;6161912;23;20426;-71
2023/08/30 07:21:01;;;;;;;3.53;3.43;;;16.50;99.90;;;;;;6151630;23;20521;-70
2023/08/30 07:23:28;;;;;;;3.67;3.47;;;16.50;99.90;;;;;;6150890;23;20415;-70
2023/08/30 07:25:55;;;;;;;3.87;3.67;;;16.60;99.90;;;;;;6153037;23;20708;-70
2023/08/30 07:28:23;;;;;;;3.07;2.97;;;16.60;99.90;;;;;;6151756;23;20439;-71
2023/08/30 07:30:49;;;;;;;3.23;3.10;;;16.70;99.90;;;;;;6152161;23;20419;-71
2023/08/30 07:33:16;;;;;;;3.13;3.03;;;16.80;99.90;;;;;;6152587;23;20425;-71
2023/08/30 07:35:43;;;;;;;2.87;2.77;;;16.90;99.90;;;;;;6152231;23;20460;-70
2023/08/30 07:38:10;;;;;;;3.00;2.90;;;16.90;99.90;;;;;;6152813;23;20451;-72
2023/08/30 07:40:36;;;;;;;2.83;2.73;;;17.00;99.90;;;;;;6152531;23;20430;-71
2023/08/30 07:43:03;;;;;;;3.70;3.40;;;17.10;99.90;;;;;;6151737;23;20487;-70
2023/08/30 07:45:31;;;;;;;3.60;3.50;;;17.30;99.90;;;;;;6152507;23;20417;-71
2023/08/30 07:47:58;;;;;;;4.30;3.90;;;17.40;99.90;;;;;;6152747;23;20442;-70
2023/08/30 07:50:24;;;;;;;2.67;2.67;;;17.50;99.90;;;;;;6150628;23;20913;-71
2023/08/30 07:52:51;;;;;;;2.80;2.70;;;17.50;99.90;;;;;;6152365;23;20428;-71
2023/08/30 07:55:18;;;;;;;2.57;2.47;;;17.60;99.90;;;;;;6153066;23;20452;-71
2023/08/30 07:57:45;;;;;;;3.10;3.00;;;17.80;99.90;;;;;;6153215;23;20448;-72
2023/08/30 08:00:13;;;;;;;4.30;3.90;;;17.80;99.90;;;;;;6152605;23;20425;-71
2023/08/30 08:02:42;;;;;;;3.73;3.53;;;17.90;99.90;;;;;;6152370;23;20436;-70
2023/08/30 08:05:09;;;;;;;3.33;3.23;;;17.90;99.90;;;;;;6152843;23;20745;-73
2023/08/30 08:07:39;;;;;;;3.07;2.97;;;18.00;99.90;;;;;;6153093;23;20470;-70
2023/08/30 08:10:06;;;;;;;3.30;3.20;;;18.10;99.90;;;;;;6151833;23;20406;-70
2023/08/30 08:12:34;;;;;;;5.03;4.63;;;18.30;99.90;;;;;;6152021;23;20444;-70
2023/08/30 08:15:00;;;;;;;4.50;4.20;;;18.40;99.90;;;;;;6151524;23;20444;-71
2023/08/30 08:17:27;;;;;;;5.23;4.90;;;18.50;99.90;;;;;;6150180;23;20449;-71
2023/08/30 08:19:55;;;;;;;4.90;4.50;;;18.50;99.90;;;;;;6151356;23;20965;-70
2023/08/30 08:22:22;;;;;;;4.40;4.10;;;18.50;99.90;;;;;;6152441;23;20763;-69
2023/08/30 08:24:51;;;;;;;7.00;4.90;;;18.60;99.90;;;;;;6151762;23;20463;-70
2023/08/30 08:27:18;;;;;;;3.77;3.67;;;18.70;99.90;;;;;;6152724;23;20496;-71
2023/08/30 08:29:44;;;;;;;4.90;4.50;;;18.80;99.90;;;;;;6152199;23;20429;-71
2023/08/30 08:32:11;;;;;;;4.20;3.90;;;18.90;99.90;;;;;;6152798;23;20427;-71
2023/08/30 08:34:38;;;;;;;4.03;3.73;;;18.90;99.90;;;;;;6151970;23;20446;-71
2023/08/30 08:37:07;;;;;;;4.97;4.73;;;19.00;99.90;;;;;;6152844;23;20449;-70
2023/08/30 08:39:36;;;;;;;4.87;4.33;;;19.10;99.90;;;;;;6153228;23;20420;-72
2023/08/30 08:42:04;;;;;;;4.40;4.10;;;19.30;99.90;;;;;;6153397;23;20425;-70
2023/08/30 08:44:33;;;;;;;3.60;3.40;;;19.40;99.90;;;;;;6151689;23;20415;-71
2023/08/30 08:47:01;;;;;;;4.77;4.47;;;19.50;99.90;;;;;;6151661;23;20438;-72
2023/08/30 08:49:30;;;;;;;4.40;4.10;;;19.60;99.90;;;;;;6152200;23;20937;-72
2023/08/30 08:51:57;;;;;;;4.83;4.63;;;19.70;99.90;;;;;;6150162;23;20466;-72
2023/08/30 08:54:26;;;;;;;3.47;3.27;;;19.70;99.90;;;;;;6151920;23;20428;-71
2023/08/30 08:56:54;;;;;;;5.33;4.93;;;19.80;99.90;;;;;;6152775;23;20461;-72
2023/08/30 08:59:22;;;;;;;4.53;4.23;;;19.90;99.90;;;;;;6151436;23;20430;-71
2023/08/30 09:01:50;;;;;;;3.80;3.57;;;20.00;99.90;;;;;;6151185;23;20429;-72
2023/08/30 09:04:16;;;;;;;3.20;3.10;;;20.10;99.90;;;;;;6151896;23;20427;-71
2023/08/30 09:06:43;;;;;;;3.73;3.43;;;20.20;99.90;;;;;;6150736;23;20446;-70
2023/08/30 09:09:11;;;;;;;3.67;3.37;;;20.40;99.90;;;;;;6151718;23;20434;-70
2023/08/30 09:11:39;;;;;;;3.70;3.60;;;20.40;99.90;;;;;;6150113;23;20425;-71
2023/08/30 09:14:06;;;;;;;3.43;3.33;;;20.50;99.90;;;;;;6151207;23;20761;-70
2023/08/30 09:16:32;;;;;;;3.33;3.13;;;20.50;99.90;;;;;;6105693;23;1046927;-70
2023/08/30 09:19:00;;;;;;;3.93;3.73;;;20.50;99.90;;;;;;6153456;23;20403;-70
2023/08/30 09:21:27;;;;;;;3.80;3.43;;;20.60;99.90;;;;;;6150979;23;20425;-70
2023/08/30 09:24:01;;;;;;;4.30;4.10;;;20.70;99.90;;;;;;6153338;23;20417;-70
2023/08/30 09:26:28;;;;;;;3.87;3.70;;;20.90;99.90;;;;;;6152359;23;20417;-69
2023/08/30 09:28:57;;;;;;;3.83;3.63;;;20.90;99.90;;;;;;6153144;23;20958;-70
2023/08/30 09:31:23;;;;;;;3.30;3.20;;;20.80;99.90;;;;;;6152856;23;20418;-69
2023/08/30 09:33:50;;;;;;;3.40;3.20;;;20.80;99.90;;;;;;6153804;23;20917;-70
2023/08/30 09:36:17;;;;;;;3.40;3.20;;;20.90;99.90;;;;;;6152287;23;20831;-70
2023/08/30 09:38:49;;;;;;;3.60;3.30;;;21.00;99.90;;;;;;6153801;23;20418;-70
2023/08/30 09:41:17;;;;;;;3.13;3.00;;;21.20;99.90;;;;;;6152538;23;20403;-70
2023/08/30 09:43:44;;;;;;;3.67;3.30;;;21.10;99.90;;;;;;6151757;23;20903;-71
2023/08/30 09:46:13;;;;;;;3.70;3.60;;;21.00;99.90;;;;;;6149031;23;20418;-70
2023/08/30 09:48:40;;;;;;;3.80;3.67;;;21.00;99.90;;;;;;6150808;23;20419;-70
2023/08/30 09:51:09;;;;;;;4.07;3.77;;;21.00;99.90;;;;;;6152205;23;20419;-70
2023/08/30 09:53:43;;;;;;;3.63;3.50;;;21.00;99.90;;;;;;6153215;23;20426;-69
2023/08/30 09:56:15;;;;;;;3.77;3.57;;;21.10;99.90;;;;;;6153709;23;20511;-69
2023/08/30 09:58:42;;;;;;;4.00;3.70;;;21.20;99.90;;;;;;6152923;23;20406;-69
2023/08/30 10:01:10;;;;;;;4.37;4.07;;;21.30;99.90;;;;;;6153709;23;20419;-70
2023/08/30 10:03:39;;;;;;;3.80;3.60;;;21.30;99.90;;;;;;6153588;23;20430;-70
2023/08/30 10:06:07;;;;;;;3.60;3.40;;;21.40;99.90;;;;;;6152985;23;20414;-69
2023/08/30 10:08:36;;;;;;;4.70;4.40;;;21.40;99.90;;;;;;6151754;23;20445;-69
2023/08/30 10:11:05;;;;;;;5.43;3.63;;;21.40;99.90;;;;;;6153149;23;20419;-70
2023/08/30 10:13:33;;;;;;;3.90;3.70;;;21.30;99.90;;;;;;6153319;23;20418;-71
2023/08/30 10:16:04;;;;;;;3.70;3.50;;;21.10;99.90;;;;;;6162800;23;20453;-70
2023/08/30 10:18:34;;;;;;;3.57;3.37;;;21.10;99.90;;;;;;6161844;23;20546;-70
2023/08/30 10:21:08;;;;;;;3.90;3.80;;;21.20;99.90;;;;;;6153398;23;20426;-70
2023/08/30 10:23:36;;;;;;;3.80;3.70;;;21.30;99.90;;;;;;6153893;23;20411;-70
2023/08/30 10:26:04;;;;;;;4.13;3.80;;;21.30;99.90;;;;;;6153634;23;20418;-70
2023/08/30 10:28:32;;;;;;;3.60;3.40;;;21.30;99.90;;;;;;6151446;23;20473;-70
2023/08/30 10:30:59;;;;;;;4.63;4.33;;;21.40;99.90;;;;;;6153542;23;20418;-70
2023/08/30 10:33:26;;;;;;;3.60;3.50;;;21.50;99.90;;;;;;6154130;23;20426;-69
2023/08/30 10:35:55;;;;;;;4.30;4.00;;;21.50;99.90;;;;;;6151990;23;20446;-69
2023/08/30 10:38:28;;;;;;;3.60;3.40;;;21.70;99.90;;;;;;6153305;23;20438;-69
2023/08/30 10:40:55;;;;;;;4.60;3.53;;;21.80;99.90;;;;;;6153423;23;20423;-70
2023/08/30 10:43:31;;;;;;;3.27;3.13;;;21.80;99.90;;;;;;6152696;23;20927;-70
2023/08/30 10:46:02;;;;;;;4.13;3.93;;;21.80;99.90;;;;;;6152413;23;20410;-69
2023/08/30 10:48:39;;;;;;;3.90;3.70;;;21.80;99.90;;;;;;6152773;23;20443;-70
2023/08/30 10:51:17;;;;;;;4.70;4.40;;;21.90;99.90;;;;;;6152747;23;20442;-69
2023/08/30 10:53:55;;;;;;;4.20;4.00;;;21.90;99.90;;;;;;6153820;23;20403;-69
2023/08/30 10:56:28;;;;;;;4.90;4.70;;;21.80;99.90;;;;;;6153329;23;20430;-70
2023/08/30 10:58:55;;;;;;;3.90;3.70;;;21.60;99.90;;;;;;6152122;23;20407;-70
2023/08/30 11:01:22;;;;;;;5.10;4.73;;;21.50;99.90;;;;;;6153534;23;20754;-70
2023/08/30 11:03:50;;;;;;;4.20;3.90;;;21.50;99.90;;;;;;6151424;23;20419;-71
2023/08/30 11:06:17;;;;;;;4.30;4.10;;;21.60;99.90;;;;;;6152125;23;20430;-69
2023/08/30 11:08:45;;;;;;;5.00;3.70;;;21.70;99.90;;;;;;6153111;23;20427;-69
2023/08/30 11:11:14;;;;;;;4.20;4.00;;;21.70;99.90;;;;;;6153403;23;20420;-69
2023/08/30 11:13:41;;;;;;;4.60;4.30;;;21.70;99.90;;;;;;6153519;23;20420;-70
2023/08/30 11:16:07;;;;;;;4.37;4.07;;;21.70;99.90;;;;;;6152414;23;20450;-70
2023/08/30 11:18:38;;;;;;;3.87;3.63;;;21.70;99.90;;;;;;6152661;23;20450;-70
2023/08/30 11:21:06;;;;;;;3.37;3.20;;;21.90;99.90;;;;;;6152754;23;20455;-69
2023/08/30 11:23:33;;;;;;;3.70;3.40;;;21.90;99.90;;;;;;6151863;23;20418;-70
2023/08/30 11:26:03;;;;;;;2.90;2.80;;;21.90;99.90;;;;;;6151220;23;20427;-69
2023/08/30 11:28:30;;;;;;;4.00;3.70;;;22.00;99.90;;;;;;6152498;23;20445;-69
2023/08/30 11:30:57;;;;;;;3.83;3.53;;;21.90;99.90;;;;;;6152740;23;20433;-70
2023/08/30 11:33:24;;;;;;;3.33;3.10;;;21.90;99.90;;;;;;6153143;23;20428;-70
2023/08/30 11:35:52;;;;;;;3.50;3.40;;;21.80;99.90;;;;;;6151731;23;20448;-70
2023/08/30 11:38:19;;;;;;;4.00;3.70;;;21.80;99.90;;;;;;6153272;23;20440;-70
2023/08/30 11:40:46;;;;;;;3.27;3.17;;;21.60;99.90;;;;;;6153128;23;20483;-69
2023/08/30 11:43:16;;;;;;;2.83;2.73;;;21.60;99.90;;;;;;6153111;23;20423;-69
2023/08/30 11:45:43;;;;;;;3.27;3.07;;;21.60;99.90;;;;;;6152114;23;20399;-69
2023/08/30 11:48:10;;;;;;;3.30;3.20;;;21.50;99.90;;;;;;6153324;23;20441;-69
2023/08/30 11:50:37;;;;;;;3.40;3.30;;;21.60;99.90;;;;;;6152366;23;20441;-69
2023/08/30 11:53:04;;;;;;;3.13;3.03;;;21.50;99.90;;;;;;6153229;23;20426;-69
2023/08/30 11:55:31;;;;;;;3.50;3.30;;;21.50;99.90;;;;;;6152572;23;20954;-70
2023/08/30 11:57:58;;;;;;;3.97;3.67;;;21.50;99.90;;;;;;6155207;23;20446;-70
2023/08/30 12:00:26;;;;;;;3.67;3.57;;;21.40;99.90;;;;;;6154836;23;20426;-70
2023/08/30 12:02:53;;;;;;;3.00;2.90;;;21.30;99.90;;;;;;6154533;23;20421;-69
2023/08/30 12:05:21;;;;;;;2.93;2.83;;;21.20;99.90;;;;;;6152951;23;20948;-69
2023/08/30 12:07:48;;;;;;;3.37;3.20;;;21.10;99.90;;;;;;6154175;23;20442;-70
2023/08/30 12:10:19;;;;;;;2.93;2.80;;;21.10;99.90;;;;;;6154377;23;20425;-70
2023/08/30 12:12:46;;;;;;;2.40;2.30;;;21.10;99.90;;;;;;6152867;23;20500;-70
2023/08/30 12:15:14;;;;;;;3.80;3.43;;;21.10;99.90;;;;;;6154143;23;20429;-70
2023/08/30 12:17:42;;;;;;;2.83;2.83;;;21.10;99.90;;;;;;6154122;23;20450;-71
2023/08/30 12:20:17;;;;;;;3.60;2.87;;;21.10;99.90;;;;;;6151780;23;20941;-70
2023/08/30 12:22:44;;;;;;;3.77;3.53;;;21.10;99.90;;;;;;6154562;23;20402;-69
2023/08/30 12:25:18;;;;;;;3.90;3.70;;;21.10;99.90;;;;;;6153158;23;20420;-70
2023/08/30 12:27:45;;;;;;;3.90;3.70;;;21.20;99.90;;;;;;6154049;23;20441;-70
2023/08/30 12:30:12;;;;;;;3.20;3.00;;;21.00;99.90;;;;;;6154778;23;20422;-70
2023/08/30 12:32:39;;;;;;;2.80;2.80;;;20.90;99.90;;;;;;6154501;23;20426;-71
2023/08/30 12:35:08;;;;;;;3.17;2.97;;;21.00;99.90;;;;;;6157128;23;20526;-70
2023/08/30 12:37:35;;;;;;;3.77;3.47;;;21.00;99.90;;;;;;6154728;23;20454;-70
2023/08/30 12:40:02;;;;;;;3.93;3.57;;;21.00;99.90;;;;;;6155962;23;20428;-70
2023/08/30 12:42:29;;;;;;;3.57;3.27;;;21.10;99.90;;;;;;6155728;23;20421;-70
2023/08/30 12:44:56;;;;;;;4.20;3.00;;;21.10;99.90;;;;;;6155562;23;20431;-70
2023/08/30 12:47:23;;;;;;;3.47;3.37;;;21.20;99.90;;;;;;6152704;23;20444;-70
2023/08/30 12:49:50;;;;;;;3.13;3.00;;;21.10;99.90;;;;;;6152854;23;20433;-70
2023/08/30 12:52:18;;;;;;;3.33;3.17;;;21.10;99.90;;;;;;6155331;23;20754;-70
2023/08/30 12:54:44;;;;;;;3.37;3.23;;;21.20;99.90;;;;;;6154767;23;20421;-70
2023/08/30 12:57:11;;;;;;;4.73;3.13;;;21.40;99.90;;;;;;6155184;23;20459;-70
2023/08/30 12:59:37;;;;;;;4.10;3.80;;;21.50;99.90;;;;;;6153062;23;20429;-70
2023/08/30 13:02:04;;;;;;;3.50;3.37;;;21.40;99.90;;;;;;6154344;23;20423;-70
2023/08/30 13:04:31;;;;;;;2.87;2.83;;;21.30;99.90;;;;;;6154209;23;20426;-70
2023/08/30 13:06:58;;;;;;;2.60;2.57;;;21.20;99.90;;;;;;6153337;23;20448;-70
2023/08/30 13:09:26;;;;;;;3.43;3.33;;;21.30;99.90;;;;;;6152525;23;20902;-70
2023/08/30 13:11:52;;;;;;;3.53;3.20;;;21.10;99.90;;;;;;6154039;23;20429;-70
2023/08/30 13:14:19;;;;;;;2.83;2.80;;;21.00;99.90;;;;;;6153679;23;20421;-70
2023/08/30 13:16:46;;;;;;;3.20;3.00;;;20.90;99.90;;;;;;6151730;23;20466;-69
2023/08/30 13:19:12;;;;;;;2.47;2.37;;;20.70;99.90;;;;;;6152989;23;20428;-70
2023/08/30 13:21:39;;;;;;;2.23;2.23;;;20.60;99.90;;;;;;6151151;23;20462;-70
2023/08/30 13:24:06;;;;;;;2.90;2.80;;;20.70;99.90;;;;;;6154038;23;20426;-69
2023/08/30 13:26:34;;;;;;;3.17;3.07;;;20.80;99.90;;;;;;6151933;23;20434;-70
2023/08/30 13:29:02;;;;;;;3.97;3.70;;;21.00;99.90;;;;;;6152725;23;20420;-70
2023/08/30 13:31:28;;;;;;;5.37;3.87;;;21.00;99.90;;;;;;6153658;23;20989;-69
2023/08/30 13:33:55;;;;;;;3.90;3.70;;;20.80;99.90;;;;;;6154108;23;20421;-69
2023/08/30 13:36:22;;;;;;;3.43;3.33;;;20.80;99.90;;;;;;6151141;23;20451;-70
2023/08/30 13:38:48;;;;;;;4.00;3.80;;;20.80;99.90;;;;;;6152981;23;20420;-70
2023/08/30 13:41:15;;;;;;;4.17;3.97;;;20.90;99.90;;;;;;6163249;23;20743;-70
2023/08/30 13:43:43;;;;;;;4.80;4.07;;;21.10;99.90;;;;;;6153836;23;20909;-70
2023/08/30 13:46:10;;;;;;;4.33;4.03;;;21.10;99.90;;;;;;6154237;23;20426;-71
2023/08/30 13:48:37;;;;;;;2.90;2.80;;;21.10;99.90;;;;;;6153572;23;20451;-71
2023/08/30 13:51:03;;;;;;;2.90;2.80;;;21.20;99.90;;;;;;6153035;23;20426;-71
2023/08/30 13:53:30;;;;;;;3.67;3.47;;;21.40;99.90;;;;;;6152754;23;20808;-71
2023/08/30 13:55:57;;;;;;;1.93;1.90;;;21.40;99.90;;;;;;6153308;23;20480;-70
2023/08/30 13:58:24;;;;;;;3.20;3.10;;;21.40;99.90;;;;;;6153697;23;20442;-71
2023/08/30 14:00:52;;;;;;;3.43;2.93;;;21.20;99.90;;;;;;6153498;23;20421;-71
2023/08/30 14:03:18;;;;;;;3.40;3.30;;;21.30;99.90;;;;;;6152691;23;20428;-70
2023/08/30 14:05:45;;;;;;;3.50;3.40;;;21.30;99.90;;;;;;6153707;23;20425;-71
2023/08/30 14:08:12;;;;;;;2.97;2.87;;;21.20;99.90;;;;;;6153000;23;20765;-70
2023/08/30 14:10:39;;;;;;;3.37;3.27;;;21.20;99.90;;;;;;6151602;23;20476;-70
2023/08/30 14:13:05;;;;;;;3.17;3.07;;;21.10;99.90;;;;;;6154016;23;20429;-70
2023/08/30 14:15:33;;;;;;;3.30;3.10;;;21.10;99.90;;;;;;6150929;23;20420;-70
2023/08/30 14:18:01;;;;;;;3.03;2.93;;;21.10;99.90;;;;;;6147919;23;20450;-70
2023/08/30 14:20:29;;;;;;;3.37;3.10;;;21.10;99.90;;;;;;6152073;23;20708;-71
2023/08/30 14:22:55;;;;;;;3.73;3.50;;;21.10;99.90;;;;;;6151255;23;20433;-70
2023/08/30 14:25:22;;;;;;;3.17;3.03;;;21.00;99.90;;;;;;6153576;23;20431;-71
2023/08/30 14:27:49;;;;;;;3.37;3.27;;;20.90;99.90;;;;;;6153304;23;20443;-70
2023/08/30 14:30:16;;;;;;;2.50;2.50;;;20.90;99.90;;;;;;6153516;23;20418;-71
2023/08/30 14:32:43;;;;;;;3.13;2.97;;;21.00;99.90;;;;;;6152235;23;20915;-70
2023/08/30 14:35:12;;;;;;;3.60;3.40;;;21.00;99.90;;;;;;6153621;23;20418;-71
2023/08/30 14:37:39;;;;;;;2.60;2.50;;;21.10;99.90;;;;;;6152451;23;20490;-70
2023/08/30 14:40:07;;;;;;;3.30;3.20;;;21.20;99.90;;;;;;6152390;23;20936;-71
2023/08/30 14:42:34;;;;;;;3.20;3.00;;;21.30;99.90;;;;;;6154048;23;20719;-71
2023/08/30 14:45:02;;;;;;;2.30;2.30;;;21.30;99.90;;;;;;6152419;23;20425;-70
2023/08/30 14:47:30;;;;;;;3.00;2.70;;;21.30;99.90;;;;;;6153641;23;20435;-71
2023/08/30 14:49:57;;;;;;;2.70;2.60;;;21.30;99.90;;;;;;6149804;23;20424;-71
2023/08/30 14:52:25;;;;;;;3.17;3.07;;;21.20;99.90;;;;;;6152665;23;20426;-71
2023/08/30 14:54:52;;;;;;;2.60;2.60;;;21.10;99.90;;;;;;6152902;23;20912;-71
2023/08/30 14:57:18;;;;;;;3.13;2.93;;;21.00;99.90;;;;;;6152854;23;20458;-70
2023/08/30 14:59:45;;;;;;;2.90;2.70;;;20.90;99.90;;;;;;6151271;23;20420;-70
2023/08/30 15:02:12;;;;;;;2.70;2.50;;;20.80;99.90;;;;;;6151352;23;20422;-70
2023/08/30 15:04:38;;;;;;;5.93;3.07;;;20.80;99.90;;;;;;6152740;23;20908;-71
2023/08/30 15:07:05;;;;;;;3.23;3.13;;;20.80;99.90;;;;;;6153386;23;20441;-70
2023/08/30 15:09:33;;;;;;;3.87;3.70;;;20.80;99.90;;;;;;6153047;23;20432;-71
2023/08/30 15:12:00;;;;;;;2.87;2.67;;;20.90;99.90;;;;;;6152257;23;20420;-71
2023/08/30 15:14:26;;;;;;;3.40;3.20;;;21.00;99.90;;;;;;6153400;23;20432;-72
2023/08/30 15:16:53;;;;;;;3.30;3.00;;;21.10;99.90;;;;;;6152415;23;20475;-70
2023/08/30 15:19:20;;;;;;;3.13;3.03;;;21.10;99.90;;;;;;6150287;23;20428;-71
2023/08/30 15:21:47;;;;;;;2.97;2.77;;;21.00;99.90;;;;;;6151115;23;20893;-71
2023/08/30 15:24:16;;;;;;;3.47;3.37;;;21.00;99.90;;;;;;6152806;23;20460;-70
2023/08/30 15:26:44;;;;;;;3.17;3.07;;;21.00;99.90;;;;;;6152572;23;20486;-70
2023/08/30 15:29:11;;;;;;;3.73;3.50;;;20.80;99.90;;;;;;6152049;23;20427;-71
2023/08/30 15:31:37;;;;;;;3.13;2.93;;;20.80;99.90;;;;;;6152752;23;20787;-70
2023/08/30 15:34:04;;;;;;;3.50;3.33;;;20.70;99.90;;;;;;6152900;23;20802;-71
2023/08/30 15:36:31;;;;;;;3.50;3.30;;;20.70;99.90;;;;;;6152566;23;20428;-70
2023/08/30 15:38:58;;;;;;;3.63;3.33;;;20.70;99.90;;;;;;6152758;23;20473;-70
2023/08/30 15:41:24;;;;;;;3.47;3.23;;;20.70;99.90;;;;;;6153089;23;20719;-72
2023/08/30 15:43:52;;;;;;;3.27;3.07;;;20.70;99.90;;;;;;6151659;23;20511;-71
2023/08/30 15:46:21;;;;;;;3.07;2.97;;;20.80;99.90;;;;;;6152306;23;20427;-71
2023/08/30 15:48:47;;;;;;;4.40;4.10;;;20.80;99.90;;;;;;6151793;23;20501;-70
2023/08/30 15:51:14;;;;;;;3.63;3.50;;;20.80;99.90;;;;;;6152814;23;20856;-70
2023/08/30 15:53:41;;;;;;;3.40;3.20;;;20.60;99.90;;;;;;6153217;23;20470;-71
2023/08/30 15:56:08;;;;;;;3.37;3.03;;;20.50;99.90;;;;;;6151782;23;20954;-71
2023/08/30 15:58:35;;;;;;;14.60;3.40;;;20.40;99.90;;;;;;6152755;23;20454;-70
2023/08/30 16:01:05;;;;;;;3.27;3.17;;;20.40;99.90;;;;;;6152671;23;20506;-71
2023/08/30 16:03:34;;;;;;;3.60;3.40;;;20.30;99.90;;;;;;6152868;23;20403;-71
2023/08/30 16:06:00;;;;;;;4.00;3.80;;;20.20;99.90;;;;;;6151985;23;20423;-69
2023/08/30 16:08:28;;;;;;;3.47;3.37;;;20.20;99.90;;;;;;6152454;23;20439;-70
2023/08/30 16:10:55;;;;;;;3.53;3.43;;;20.10;99.90;;;;;;6150864;23;20941;-70
2023/08/30 16:13:22;;;;;;;4.03;3.83;;;20.10;99.90;;;;;;6152487;23;20422;-69
2023/08/30 16:15:49;;;;;;;3.57;3.37;;;20.10;99.90;;;;;;6151906;23;20423;-69
2023/08/30 16:18:17;;;;;;;4.30;4.10;;;20.00;99.90;;;;;;6152836;23;20454;-70
2023/08/30 16:20:44;;;;;;;3.70;3.60;;;20.00;99.90;;;;;;6151293;23;20427;-70
2023/08/30 16:23:11;;;;;;;4.00;3.73;;;19.90;99.90;;;;;;6149795;23;20467;-70
2023/08/30 16:25:38;;;;;;;4.13;3.93;;;19.90;99.90;;;;;;6155182;23;20419;-70
2023/08/30 16:28:05;;;;;;;4.03;3.73;;;19.80;99.90;;;;;;6161742;23;20438;-70
2023/08/30 16:30:34;;;;;;;5.03;4.63;;;19.60;99.90;;;;;;6160307;23;20487;-69
2023/08/30 16:33:01;;;;;;;5.70;5.30;;;19.50;99.90;;;;;;6152061;23;20422;-69
2023/08/30 16:35:30;;;;;;;6.37;5.97;;;19.30;99.90;;;;;;6152727;23;20425;-69
2023/08/30 16:37:56;;;;;;;5.67;5.30;;;19.00;99.90;;;;;;6150631;23;20462;-69
2023/08/30 16:40:23;;;;;;;5.63;5.33;;;18.60;99.90;;;;;;6152368;23;20707;-69
2023/08/30 16:42:50;;;;;;;5.40;5.00;;;18.30;99.90;;;;;;6152275;23;20887;-71
2023/08/30 16:45:17;;;;;;;7.10;6.43;;;18.00;99.90;;;;;;6149028;23;20419;-71
2023/08/30 16:47:43;;;;;;;6.87;6.27;;;17.80;99.90;;;;;;6154635;23;20436;-70